Flight Track Log - Related Links

Times and Time Zones

All times are in EDT time to prevent confusion due to time zone crossing. See the AMX202 flight status page for this flight to view local times or setup timezone preferences in your user account.

Time Position Orientation Groundspeed Altitude Reporting Facility
EDT Latitude Longitude Course Direction KTS MPH feet Rate Location/Type
Sat 05:43:46 PM 19.3410 -99.0190 292° West 358 412 18,800  Level FlightAware ADS-B
Sat 05:44:29 PM 19.3790 -99.0820 303° West 363 418 20,700 2,651 Climbing FlightAware ADS-B
Sat 05:45:12 PM 19.4210 -99.1460 305° West 365 420 22,600 2,214 Climbing FlightAware ADS-B
Sat 05:45:53 PM 19.4460 -99.2150 291° West 384 442 23,800 1,875 Climbing FlightAware ADS-B
Sat 05:46:32 PM 19.4700 -99.2870 289° West 395 455 25,100 1,952 Climbing FlightAware ADS-B
Sat 05:47:16 PM 19.4980 -99.3670 290° West 403 464 26,500 2,442 Climbing FlightAware ADS-B
Sat 05:47:58 PM 19.5240 -99.4440 290° West 385 443 28,600 2,233 Climbing FlightAware ADS-B
Sat 05:48:42 PM 19.5510 -99.5210 290° West 396 456 29,700 1,071 Climbing FlightAware ADS-B
Sat 05:49:22 PM 19.5770 -99.5980 290° West 422 486 30,100 1,071 Climbing FlightAware ADS-B
Sat 05:50:06 PM 19.6070 -99.6840 290° West 429 494 31,200 1,571 Climbing FlightAware ADS-B
Sat 05:50:46 PM 19.6350 -99.7630 291° West 434 499 32,300 1,390 Climbing FlightAware ADS-B
Sat 05:51:28 PM 19.6810 -99.8400 302° West 453 521 33,100 1,214 Climbing FlightAware ADS-B
Sat 05:52:10 PM 19.7390 -99.9120 311° West 460 529 34,000 1,465 Climbing FlightAware ADS-B
Sat 05:52:54 PM 19.7990 -99.9870 310° West 455 524 35,200 1,857 Climbing FlightAware ADS-B
Sat 05:53:34 PM 19.8540 -100.0550 311° West 444 511 36,600 1,929 Climbing FlightAware ADS-B
Sat 05:54:18 PM 19.9120 -100.1260 311° West 436 502 37,900 1,553 Climbing FlightAware ADS-B
Sat 05:54:59 PM 19.9650 -100.1920 311° West 432 497 38,800 1,200 Climbing FlightAware ADS-B
Sat 05:55:38 PM 20.0160 -100.2550 311° West 430 495 39,500 766 Climbing FlightAware ADS-B
Sat 05:56:33 PM 20.0810 -100.3360 311° West 428 493 40,000 294 Climbing FlightAware ADS-B
Sat 05:57:20 PM 20.1490 -100.4190 311° West 430 495 40,000  Level FlightAware ADS-B
Sat 05:57:59 PM 20.1980 -100.4810 310° West 431 496 40,000  Level FlightAware ADS-B
Sat 05:58:44 PM 20.2570 -100.5540 311° West 432 497 40,000  Level FlightAware ADS-B
Sat 05:59:24 PM 20.3090 -100.6190 310° West 434 499 40,000  Level FlightAware ADS-B
Sat 06:00:04 PM 20.3620 -100.6840 311° West 435 501 40,000  Level FlightAware ADS-B
Sat 06:01:20 PM 20.4610 -100.8080 310° West 437 503 40,000  Level FlightAware ADS-B
Sat 06:02:00 PM 20.5140 -100.8740 311° West 438 504 40,000  Level FlightAware ADS-B
Sat 06:02:44 PM 20.5730 -100.9480 310° West 440 506 40,000  Level FlightAware ADS-B
Sat 06:03:26 PM 20.6280 -101.0180 310° West 439 505 40,000  Level FlightAware ADS-B
Sat 06:04:06 PM 20.6800 -101.0820 311° West 432 497 40,000  Level FlightAware ADS-B
Sat 06:04:50 PM 20.7370 -101.1540 310° West 426 490 40,000  Level FlightAware ADS-B
Sat 06:05:44 PM 20.8050 -101.2400 310° West 425 489 40,000  Level FlightAware ADS-B
Sat 06:06:28 PM 20.8610 -101.3100 311° West 425 489 40,000  Level FlightAware ADS-B
Sat 06:07:08 PM 20.9120 -101.3740 310° West 422 486 40,000  Level FlightAware ADS-B
Sat 06:07:50 PM 20.9640 -101.4410 310° West 418 481 40,000  Level FlightAware ADS-B
Sat 06:08:34 PM 21.0200 -101.5090 311° West 424 488 40,000  Level FlightAware ADS-B
Sat 06:09:14 PM 21.0740 -101.5720 313° West 430 495 40,000  Level FlightAware ADS-B
Sat 06:09:54 PM 21.1280 -101.6350 313° West 429 494 40,000  Level FlightAware ADS-B
Sat 06:11:03 PM 21.1720 -101.6860 313° West 428 493 40,000  Level FlightAware ADS-B
Sat 06:11:48 PM 21.2800 -101.8130 312° West 434 499 40,000  Level FlightAware ADS-B
Sat 06:12:30 PM 21.3390 -101.8810 313° West 434 499 40,000  Level FlightAware ADS-B
Sat 06:13:07 PM 21.3880 -101.9380 313° West 429 494 40,000  Level FlightAware ADS-B
Sat 06:13:55 PM 21.4530 -102.0150 312° West 429 494 40,000  Level FlightAware ADS-B
Sat 06:14:35 PM 21.5060 -102.0780 312° West 428 493 40,000  Level FlightAware ADS-B
Sat 06:15:19 PM 21.5640 -102.1450 313° West 426 490 40,000  Level FlightAware ADS-B
Sat 06:15:47 PM 21.6140 -102.1760 330° Northwest 451 519 40,000  Level FlightAware ADS-B
Sat 06:15:59 PM 21.6400 -102.1790 354° North 462 532 40,000  Level FlightAware ADS-B
Sat 06:16:31 PM 21.7070 -102.1670 North 475 547 40,000  Level FlightAware ADS-B
Sat 06:17:11 PM 21.7930 -102.1470 12° North 473 544 40,000  Level FlightAware ADS-B
Sat 06:17:52 PM 21.8820 -102.1270 12° North 473 544 40,000  Level FlightAware ADS-B
Sat 06:18:36 PM 21.9770 -102.1050 12° North 470 541 40,000  Level FlightAware ADS-B
Sat 06:19:13 PM 22.0520 -102.0880 12° North 467 537 40,000  Level FlightAware ADS-B
Sat 06:20:00 PM 22.1530 -102.0680 10° North 467 537 40,000  Level FlightAware ADS-B
Sat 06:20:39 PM 22.2390 -102.0520 10° North 470 541 40,000  Level FlightAware ADS-B
Sat 06:21:22 PM 22.3320 -102.0420 North 465 535 40,000  Level FlightAware ADS-B
Sat 06:21:53 PM 22.3960 -102.0460 357° North 458 527 40,000  Level FlightAware ADS-B
Sat 06:22:30 PM 22.4660 -102.0540 354° North 458 527 40,000  Level FlightAware ADS-B
Sat 06:23:30 PM 22.5740 -102.0660 354° North 458 527 40,000  Level FlightAware ADS-B
Sat 06:24:06 PM 22.6380 -102.0730 354° North 458 527 40,000  Level FlightAware ADS-B
Sat 06:24:54 PM 22.7240 -102.0830 354° North 458 527 40,000  Level FlightAware ADS-B
Sat 06:26:30 PM 22.9460 -102.1960 335° Northwest 431 496 40,000  Level FlightAware ADS-B
Sat 06:27:16 PM 23.0070 -102.2530 319° Northwest 430 495 40,000  Level FlightAware ADS-B
Sat 06:27:53 PM 23.0540 -102.2970 319° Northwest 430 495 40,000  Level FlightAware ADS-B
Sat 06:28:30 PM 23.1010 -102.3420 319° Northwest 430 495 40,000  Level FlightAware ADS-B
Sat 06:29:16 PM 23.1600 -102.3980 319° Northwest 430 495 40,000  Level FlightAware ADS-B
Sat 06:29:54 PM 23.2090 -102.4430 320° Northwest 430 495 40,000  Level FlightAware ADS-B
Sat 06:30:38 PM 23.2650 -102.4970 318° Northwest 430 495 40,000  Level FlightAware ADS-B
Sat 06:31:26 PM 23.3260 -102.5540 319° Northwest 430 495 40,000  Level FlightAware ADS-B
Sat 06:32:03 PM 23.3730 -102.5990 319° Northwest 430 495 40,000  Level FlightAware ADS-B
Sat 06:32:51 PM 23.4350 -102.6570 319° Northwest 430 495 40,000  Level FlightAware ADS-B
Sat 06:33:27 PM 23.4800 -102.7010 318° Northwest 430 495 40,000  Level FlightAware ADS-B
Sat 06:34:17 PM 23.5440 -102.7610 319° Northwest 430 495 40,000  Level FlightAware ADS-B
Sat 06:34:53 PM 23.5900 -102.8050 319° Northwest 430 495 40,000  Level FlightAware ADS-B
Sat 06:35:54 PM 23.6680 -102.8790 319° Northwest 430 495 40,000  Level FlightAware ADS-B
Sat 06:36:30 PM 23.7140 -102.9220 319° Northwest 430 495 40,000  Level FlightAware ADS-B
Sat 06:39:00 PM 23.9517 -102.9838 347° North  Level Estimated
Sat 06:40:00 PM 24.0468 -103.0086 347° North  Level Estimated
Sat 06:41:00 PM 24.1418 -103.0334 347° North  Level Estimated
Sat 06:42:00 PM 24.2369 -103.0583 347° North  Level Estimated
Sat 06:43:00 PM 24.3320 -103.0832 347° North  Level Estimated
Sat 06:44:00 PM 24.4270 -103.1081 347° North  Level Estimated
Sat 06:45:00 PM 24.5221 -103.1331 347° North  Level Estimated
Sat 06:46:00 PM 24.6171 -103.1581 347° North  Level Estimated
Sat 06:47:00 PM 24.7122 -103.1832 347° North  Level Estimated
Sat 06:48:00 PM 24.8072 -103.2082 347° North  Level Estimated
Sat 06:49:00 PM 24.9023 -103.2334 347° North  Level Estimated
Sat 06:50:00 PM 24.9973 -103.2585 347° North  Level Estimated
Sat 06:51:00 PM 25.0923 -103.2837 346° North  Level Estimated
Sat 06:52:00 PM 25.1873 -103.3090 346° North  Level Estimated
Sat 06:53:00 PM 25.2824 -103.3343 346° North  Level Estimated
Sat 06:54:00 PM 25.3774 -103.3596 346° North  Level Estimated
Sat 06:55:00 PM 25.4724 -103.3849 346° North  Level Estimated
Sat 06:56:00 PM 25.5674 -103.4103 346° North  Level Estimated
Sat 06:57:00 PM 25.5683 -103.4106 347° North  Level Estimated
Sat 06:58:00 PM 25.5683 -103.4106 234° Southwest  Level Estimated
Sat 06:59:00 PM 25.5683 -103.4106 234° Southwest  Level Estimated
Sat 07:00:00 PM 25.5683 -103.4106 234° Southwest  Level Estimated
Sat 07:01:00 PM 25.5683 -103.4106 234° Southwest  Level Estimated

Login

Don't have an account? Register now (free) for customized features, flight alerts, and more!